createdAt,value
2023-04-29T00:03:20.088Z,52.11
2023-04-29T00:18:22.972Z,52.34
2023-04-29T00:33:26.101Z,51.85
2023-04-29T00:48:28.798Z,51.50
2023-04-29T01:03:32.536Z,52.78
2023-04-29T01:18:41.917Z,53.08
2023-04-29T01:33:56.163Z,53.11
2023-04-29T01:48:58.739Z,53.48
2023-04-29T02:04:01.559Z,53.48
2023-04-29T02:19:04.304Z,53.25
2023-04-29T02:34:06.973Z,51.72
2023-04-29T02:49:09.547Z,53.47
2023-04-29T03:04:12.374Z,54.00
2023-04-29T03:19:15.243Z,54.97
2023-04-29T03:34:17.855Z,53.97
2023-04-29T03:49:20.749Z,55.02
2023-04-29T04:04:23.735Z,53.82
2023-04-29T04:19:27.213Z,52.44
2023-04-29T04:34:30.059Z,57.58
2023-04-29T04:49:32.670Z,54.80
2023-04-29T05:04:35.518Z,55.30
2023-04-29T05:19:38.101Z,52.90
2023-04-29T05:34:40.771Z,53.14
2023-04-29T05:49:43.371Z,54.10
2023-04-29T06:04:47.794Z,51.31
2023-04-29T06:19:51.056Z,43.70
2023-04-29T06:34:54.018Z,42.69
2023-04-29T06:49:56.614Z,44.48
2023-04-29T07:05:00.052Z,48.01
2023-04-29T07:20:04.175Z,50.17
2023-04-29T07:35:07.125Z,53.31
2023-04-29T07:50:10.424Z,55.65
2023-04-29T08:05:13.382Z,58.15
2023-04-29T08:20:16.485Z,56.04
2023-04-29T08:35:19.272Z,58.70
2023-04-29T08:50:23.732Z,54.13
2023-04-29T09:05:27.398Z,58.99
2023-04-29T09:20:30.982Z,57.97
2023-04-29T09:35:34.335Z,59.06
2023-04-29T09:50:44.252Z,55.34
2023-04-29T10:05:48.116Z,53.55
2023-04-29T10:20:51.381Z,54.02
2023-04-29T10:35:56.004Z,55.23
2023-04-29T10:50:59.067Z,54.29
2023-04-29T11:06:09.289Z,52.56
2023-04-29T11:21:12.872Z,50.67
2023-04-29T11:36:15.905Z,50.49
2023-04-29T11:51:22.615Z,48.29
2023-04-29T12:06:30.297Z,45.90
2023-04-29T12:21:34.509Z,46.01
2023-04-29T12:36:37.921Z,46.76
2023-04-29T12:51:40.746Z,50.04
2023-04-29T13:06:43.398Z,57.56
2023-04-29T13:21:46.887Z,55.92
2023-04-29T13:36:49.726Z,52.78
2023-04-29T14:06:58.206Z,49.45
2023-04-29T14:22:00.910Z,50.74
2023-04-29T14:37:03.615Z,52.01
2023-04-29T14:52:06.405Z,54.35
2023-04-29T15:07:09.267Z,55.30
2023-04-29T15:22:12.983Z,56.60
2023-04-29T15:37:15.870Z,57.09
2023-04-29T15:52:18.541Z,59.14
2023-04-29T16:07:21.179Z,59.62
2023-04-29T16:22:23.769Z,58.48
2023-04-29T16:37:26.317Z,57.54
2023-04-29T16:52:29.006Z,58.57
2023-04-29T17:07:31.839Z,60.51
2023-04-29T17:22:34.534Z,62.81
2023-04-29T17:37:37.220Z,61.50
2023-04-29T17:52:39.808Z,60.48
2023-04-29T18:07:42.402Z,60.36
2023-04-29T18:22:46.509Z,61.50
2023-04-29T18:37:49.278Z,63.18
2023-04-29T18:52:52.188Z,63.43
2023-04-29T19:07:54.788Z,63.59
2023-04-29T19:22:57.628Z,63.28
2023-04-29T19:38:00.374Z,64.87
2023-04-29T19:53:03.339Z,63.17
2023-04-29T20:08:07.229Z,60.32
2023-04-29T20:23:10.084Z,64.44
2023-04-29T20:38:12.718Z,64.03
2023-04-29T20:53:16.871Z,63.10
2023-04-29T21:08:45.047Z,62.13
2023-04-29T21:23:48.057Z,62.52
2023-04-29T21:38:52.781Z,63.97
2023-04-29T21:53:55.869Z,63.44
2023-04-29T22:08:58.458Z,64.79
2023-04-29T22:24:01.142Z,64.77
2023-04-29T22:39:03.823Z,62.44
2023-04-29T22:54:07.625Z,61.39
2023-04-29T23:09:10.301Z,61.74
2023-04-29T23:24:12.907Z,59.78
2023-04-29T23:39:15.624Z,60.92
2023-04-29T23:54:18.363Z,59.33
